createdAt,value
2023-02-21T00:00:04.807Z,0.00
2023-02-21T00:01:04.720Z,0.00
2023-02-21T00:02:04.818Z,0.00
2023-02-21T00:03:04.730Z,0.00
2023-02-21T00:04:04.702Z,0.00
2023-02-21T00:05:04.757Z,0.00
2023-02-21T00:06:04.713Z,0.00
2023-02-21T00:07:04.668Z,0.00
2023-02-21T00:08:04.640Z,0.00
2023-02-21T00:09:04.638Z,0.00
2023-02-21T00:10:04.620Z,0.00
2023-02-21T00:11:04.609Z,0.00
2023-02-21T00:12:04.628Z,0.00
2023-02-21T00:13:04.605Z,0.00
2023-02-21T00:14:04.581Z,0.00
2023-02-21T00:15:04.582Z,0.00
2023-02-21T00:16:04.581Z,0.00
2023-02-21T00:17:04.549Z,0.00
2023-02-21T00:18:04.532Z,0.00
2023-02-21T00:19:04.523Z,0.00
2023-02-21T00:20:05.425Z,0.00
2023-02-21T00:21:04.499Z,0.00
2023-02-21T00:22:04.489Z,0.00
2023-02-21T00:23:04.490Z,0.00
2023-02-21T00:24:04.588Z,0.00
2023-02-21T00:25:04.461Z,0.00
2023-02-21T00:26:04.474Z,0.00
2023-02-21T00:27:04.449Z,0.00
2023-02-21T00:28:04.431Z,0.00
2023-02-21T00:29:04.412Z,0.00
2023-02-21T00:30:04.483Z,0.00
2023-02-21T00:31:04.450Z,0.00
2023-02-21T00:32:04.380Z,0.00
2023-02-21T00:33:07.029Z,0.00
2023-02-21T00:34:04.352Z,0.00
2023-02-21T00:35:04.369Z,0.00
2023-02-21T00:36:04.373Z,0.00
2023-02-21T00:37:04.473Z,0.00
2023-02-21T00:38:05.220Z,0.00
2023-02-21T00:39:04.405Z,0.00
2023-02-21T00:40:04.337Z,0.00
2023-02-21T00:41:04.370Z,0.00
2023-02-21T00:42:04.346Z,0.00
2023-02-21T00:43:04.268Z,0.00
2023-02-21T00:44:04.261Z,0.00
2023-02-21T00:45:04.319Z,0.00
2023-02-21T00:46:04.377Z,0.00
2023-02-21T00:47:04.210Z,0.00
2023-02-21T00:48:04.203Z,0.00
2023-02-21T00:49:04.204Z,0.00
2023-02-21T00:50:04.206Z,0.00
2023-02-21T00:51:04.171Z,0.00
2023-02-21T00:52:04.173Z,0.00
2023-02-21T00:53:04.140Z,0.00
2023-02-21T00:54:04.184Z,0.00
2023-02-21T00:55:04.128Z,0.00
2023-02-21T00:56:04.162Z,0.00
2023-02-21T00:57:04.117Z,0.00
2023-02-21T00:58:04.101Z,0.00
2023-02-21T00:59:04.080Z,0.00
2023-02-21T01:00:04.098Z,0.00
2023-02-21T01:01:04.070Z,0.00
2023-02-21T01:02:04.060Z,0.00
2023-02-21T01:03:04.031Z,0.00
2023-02-21T01:04:05.043Z,0.00
2023-02-21T01:05:04.026Z,0.00
2023-02-21T01:06:04.025Z,0.00
2023-02-21T01:07:03.996Z,0.00
2023-02-21T01:08:04.024Z,0.00
2023-02-21T01:09:03.992Z,0.00
2023-02-21T01:10:04.015Z,0.00
2023-02-21T01:11:03.955Z,0.00
2023-02-21T01:12:03.974Z,0.00
2023-02-21T01:13:03.927Z,0.00
2023-02-21T01:14:03.970Z,0.00
2023-02-21T01:15:03.919Z,0.00
2023-02-21T01:16:03.981Z,0.00
2023-02-21T01:17:12.737Z,0.00
2023-02-21T01:18:04.888Z,0.00
2023-02-21T01:19:03.870Z,0.00
2023-02-21T01:20:03.889Z,0.00
2023-02-21T01:21:03.949Z,0.00
2023-02-21T01:22:04.312Z,0.00
2023-02-21T01:23:03.820Z,0.00
2023-02-21T01:24:03.842Z,0.00
2023-02-21T01:25:03.809Z,0.00
2023-02-21T01:26:03.793Z,0.00
2023-02-21T01:27:03.779Z,0.00
2023-02-21T01:28:03.799Z,0.00
2023-02-21T01:29:03.766Z,0.00
2023-02-21T01:30:04.010Z,0.00
2023-02-21T01:31:03.763Z,0.00
2023-02-21T01:32:04.699Z,0.00
2023-02-21T01:33:03.713Z,0.00
2023-02-21T01:34:03.797Z,0.00
2023-02-21T01:35:03.703Z,0.00
2023-02-21T01:36:03.734Z,0.00
2023-02-21T01:37:03.666Z,0.00
2023-02-21T01:38:03.669Z,0.00
2023-02-21T01:39:03.670Z,0.00
2023-02-21T01:40:03.659Z,0.00
2023-02-21T01:41:03.626Z,0.00
2023-02-21T01:42:03.646Z,0.00
2023-02-21T01:43:03.599Z,0.00
2023-02-21T01:44:03.674Z,0.00
2023-02-21T01:45:03.607Z,0.00
2023-02-21T01:46:03.600Z,0.00
2023-02-21T01:47:03.562Z,0.00
2023-02-21T01:48:03.573Z,0.00
2023-02-21T01:49:03.546Z,0.00
2023-02-21T01:50:03.692Z,0.00
2023-02-21T01:51:03.513Z,0.00
2023-02-21T01:52:03.618Z,0.00
2023-02-21T01:53:03.493Z,0.00
2023-02-21T01:54:03.519Z,0.00
2023-02-21T01:55:03.485Z,0.00
2023-02-21T01:56:03.512Z,0.00
2023-02-21T01:57:03.455Z,0.00
2023-02-21T01:58:04.691Z,0.00
2023-02-21T01:59:03.439Z,0.00
2023-02-21T02:00:04.397Z,0.00
2023-02-21T02:01:03.424Z,0.00
2023-02-21T02:02:03.482Z,0.00
2023-02-21T02:03:03.387Z,0.00
2023-02-21T02:04:04.693Z,0.00
2023-02-21T02:05:03.377Z,0.00
2023-02-21T02:06:03.365Z,0.00
2023-02-21T02:07:03.347Z,0.00
2023-02-21T02:08:03.426Z,0.00
2023-02-21T02:09:03.320Z,0.00
2023-02-21T02:10:03.362Z,0.00
2023-02-21T02:11:03.299Z,0.00
2023-02-21T02:12:03.332Z,0.00
2023-02-21T02:13:03.278Z,0.00
2023-02-21T02:14:03.288Z,0.00
2023-02-21T02:15:03.318Z,0.00
2023-02-21T02:16:03.331Z,0.00
2023-02-21T02:17:03.797Z,0.00
2023-02-21T02:18:03.362Z,0.00
2023-02-21T02:19:03.214Z,0.00
2023-02-21T02:20:03.231Z,0.00
2023-02-21T02:21:03.200Z,0.00
2023-02-21T02:22:03.172Z,0.00
2023-02-21T02:23:03.171Z,0.00
2023-02-21T02:24:03.196Z,0.00
2023-02-21T02:25:03.156Z,0.00
2023-02-21T02:26:03.148Z,0.00
2023-02-21T02:27:03.127Z,0.00
2023-02-21T02:28:03.115Z,0.00
2023-02-21T02:29:03.114Z,0.00
2023-02-21T02:30:03.290Z,0.00
2023-02-21T02:31:03.173Z,0.00
2023-02-21T02:32:03.257Z,0.00
2023-02-21T02:33:03.059Z,0.00
2023-02-21T02:34:03.068Z,0.00
2023-02-21T02:35:03.041Z,0.00
2023-02-21T02:36:03.088Z,0.00
2023-02-21T02:37:03.013Z,0.00
2023-02-21T02:38:02.998Z,0.00
2023-02-21T02:39:02.990Z,0.00
2023-02-21T02:40:02.995Z,0.00
2023-02-21T02:41:02.970Z,0.00
2023-02-21T02:42:02.950Z,0.00
2023-02-21T02:43:02.939Z,0.00
2023-02-21T02:44:02.974Z,0.00
2023-02-21T02:45:02.951Z,0.00
2023-02-21T02:46:03.029Z,0.00
2023-02-21T02:47:02.899Z,0.00
2023-02-21T02:48:03.051Z,0.00
2023-02-21T02:49:02.879Z,0.00
2023-02-21T02:50:02.905Z,0.00
2023-02-21T02:51:02.869Z,0.00
2023-02-21T02:52:02.919Z,0.00
2023-02-21T02:53:02.855Z,0.00
2023-02-21T02:54:02.824Z,0.00
2023-02-21T02:55:02.831Z,0.00
2023-02-21T02:56:02.810Z,0.00
2023-02-21T02:57:02.789Z,0.00
2023-02-21T02:58:02.800Z,0.00
2023-02-21T02:59:02.768Z,0.00
2023-02-21T03:00:03.073Z,0.00
2023-02-21T03:01:02.791Z,0.00
2023-02-21T03:02:02.766Z,0.00
2023-02-21T03:03:02.719Z,0.00
2023-02-21T03:04:02.767Z,0.00
2023-02-21T03:05:02.707Z,0.00
2023-02-21T03:06:02.711Z,0.00
2023-02-21T03:07:02.677Z,0.00
2023-02-21T03:08:02.714Z,0.00
2023-02-21T03:09:02.657Z,0.00
2023-02-21T03:10:02.766Z,0.00
2023-02-21T03:11:02.638Z,0.00
2023-02-21T03:12:02.750Z,0.00
2023-02-21T03:13:02.611Z,0.00
2023-02-21T03:14:02.599Z,0.00
2023-02-21T03:15:02.598Z,0.00
2023-02-21T03:16:02.627Z,0.00
2023-02-21T03:17:02.577Z,0.00
2023-02-21T03:18:02.570Z,0.00
2023-02-21T03:19:02.564Z,0.00
2023-02-21T03:20:02.630Z,0.00
2023-02-21T03:21:02.522Z,0.00
2023-02-21T03:22:02.518Z,0.00
2023-02-21T03:23:02.508Z,0.00
2023-02-21T03:24:02.509Z,0.00
2023-02-21T03:25:02.486Z,0.00
2023-02-21T03:26:02.486Z,0.00
2023-02-21T03:27:02.471Z,0.00
2023-02-21T03:28:02.450Z,0.00
2023-02-21T03:29:02.452Z,0.00
2023-02-21T03:30:02.486Z,0.00
2023-02-21T03:31:02.421Z,0.00
2023-02-21T03:32:02.496Z,0.00
2023-02-21T03:33:02.401Z,0.00
2023-02-21T03:34:02.392Z,0.00
2023-02-21T03:35:02.391Z,0.00
2023-02-21T03:36:02.399Z,0.00
2023-02-21T03:37:02.353Z,0.00
2023-02-21T03:38:02.405Z,0.00
2023-02-21T03:39:02.336Z,0.00
2023-02-21T03:40:02.565Z,0.00
2023-02-21T03:41:02.315Z,0.00
2023-02-21T03:42:02.349Z,0.00
2023-02-21T03:43:02.278Z,0.00
2023-02-21T03:44:02.306Z,0.00
2023-02-21T03:45:02.294Z,0.00
2023-02-21T03:46:02.457Z,0.00
2023-02-21T03:47:02.254Z,0.00
2023-02-21T03:48:02.308Z,0.00
2023-02-21T03:49:02.246Z,0.00
2023-02-21T03:50:02.216Z,0.00
2023-02-21T03:51:02.206Z,0.00
2023-02-21T03:52:02.184Z,0.00
2023-02-21T03:53:02.183Z,0.00
2023-02-21T03:54:02.241Z,0.00
2023-02-21T03:55:02.182Z,0.00
2023-02-21T03:56:02.138Z,0.00
2023-02-21T03:57:02.128Z,0.00
2023-02-21T03:58:02.151Z,0.00
2023-02-21T03:59:02.119Z,0.00
2023-02-21T04:00:02.133Z,0.00
2023-02-21T04:01:02.246Z,0.00
2023-02-21T04:02:02.227Z,0.00
2023-02-21T04:03:02.078Z,0.00
2023-02-21T04:04:02.916Z,0.00
2023-02-21T04:05:02.070Z,0.00
2023-02-21T04:06:02.032Z,0.00
2023-02-21T04:07:02.024Z,0.00
2023-02-21T04:08:02.022Z,0.00
2023-02-21T04:09:02.010Z,0.00
2023-02-21T04:10:01.992Z,0.00
2023-02-21T04:11:01.982Z,0.00
2023-02-21T04:12:02.038Z,0.00
2023-02-21T04:13:01.961Z,0.00
2023-02-21T04:14:01.960Z,0.00
2023-02-21T04:15:01.957Z,0.00
2023-02-21T04:16:01.951Z,0.00
2023-02-21T04:17:01.928Z,0.00
2023-02-21T04:18:01.906Z,0.00
2023-02-21T04:19:01.901Z,0.00
2023-02-21T04:20:01.920Z,0.00
2023-02-21T04:21:01.879Z,0.00
2023-02-21T04:22:01.997Z,0.00
2023-02-21T04:23:03.784Z,0.00
2023-02-21T04:24:01.835Z,0.00
2023-02-21T04:25:01.837Z,0.00
2023-02-21T04:26:01.818Z,0.00
2023-02-21T04:27:01.805Z,0.00
2023-02-21T04:28:01.926Z,0.00
2023-02-21T04:29:01.779Z,0.00
2023-02-21T04:30:01.774Z,0.00
2023-02-21T04:31:01.766Z,0.00
2023-02-21T04:32:01.866Z,0.00
2023-02-21T04:33:01.767Z,0.00
2023-02-21T04:34:11.665Z,0.00
2023-02-21T04:35:02.720Z,0.00
2023-02-21T04:36:01.724Z,0.00
2023-02-21T04:37:01.692Z,0.00
2023-02-21T04:38:01.698Z,0.00
2023-02-21T04:39:01.675Z,0.00
2023-02-21T04:40:01.724Z,0.00
2023-02-21T04:41:01.652Z,0.00
2023-02-21T04:42:01.645Z,0.00
2023-02-21T04:43:01.631Z,0.00
2023-02-21T04:44:01.619Z,0.00
2023-02-21T04:45:01.620Z,0.00
2023-02-21T04:46:01.645Z,0.00
2023-02-21T04:47:01.580Z,0.00
2023-02-21T04:48:01.572Z,0.00
2023-02-21T04:49:01.551Z,0.00
2023-02-21T04:50:01.562Z,0.00
2023-02-21T04:51:13.566Z,0.00
2023-02-21T04:52:02.568Z,0.00
2023-02-21T04:53:01.516Z,0.00
2023-02-21T04:54:01.553Z,0.00
2023-02-21T04:55:01.501Z,0.00
2023-02-21T04:56:01.486Z,0.00
2023-02-21T04:57:01.469Z,0.00
2023-02-21T04:58:01.465Z,0.00
2023-02-21T04:59:01.473Z,0.00
2023-02-21T05:00:01.460Z,0.00
2023-02-21T05:01:01.430Z,0.00
2023-02-21T05:02:02.941Z,0.00
2023-02-21T05:03:01.404Z,0.00
2023-02-21T05:04:01.430Z,0.00
2023-02-21T05:05:01.419Z,0.00
2023-02-21T05:06:01.375Z,0.00
2023-02-21T05:07:01.355Z,0.00
2023-02-21T05:08:01.352Z,0.00
2023-02-21T05:09:01.335Z,0.00
2023-02-21T05:10:01.332Z,0.00
2023-02-21T05:11:01.312Z,0.00
2023-02-21T05:12:01.310Z,0.00
2023-02-21T05:13:01.301Z,0.00
2023-02-21T05:14:01.296Z,0.00
2023-02-21T05:15:01.273Z,0.00
2023-02-21T05:16:01.253Z,0.00
2023-02-21T05:17:01.264Z,0.00
2023-02-21T05:18:01.242Z,0.00
2023-02-21T05:19:01.226Z,0.00
2023-02-21T05:20:01.654Z,0.00
2023-02-21T05:21:03.206Z,0.00
2023-02-21T05:22:01.202Z,0.00
2023-02-21T05:23:11.764Z,0.00
2023-02-21T05:24:02.189Z,0.00
2023-02-21T05:25:01.199Z,0.00
2023-02-21T05:26:01.144Z,0.00
2023-02-21T05:27:01.146Z,0.00
2023-02-21T05:28:01.123Z,0.00
2023-02-21T05:29:01.126Z,0.00
2023-02-21T05:30:01.138Z,0.00
2023-02-21T05:31:01.510Z,0.00
2023-02-21T05:32:01.103Z,0.00
2023-02-21T05:33:01.089Z,0.00
2023-02-21T05:34:01.060Z,0.00
2023-02-21T05:35:01.154Z,0.00
2023-02-21T05:36:01.046Z,0.00
2023-02-21T05:37:01.027Z,0.00
2023-02-21T05:38:01.016Z,0.00
2023-02-21T05:39:01.078Z,0.00
2023-02-21T05:40:01.006Z,0.00
2023-02-21T05:41:01.003Z,0.00
2023-02-21T05:42:00.977Z,0.00
2023-02-21T05:43:00.976Z,0.00
2023-02-21T05:44:00.954Z,0.00
2023-02-21T05:45:01.000Z,0.00
2023-02-21T05:46:00.959Z,0.00
2023-02-21T05:47:00.934Z,0.00
2023-02-21T05:48:00.920Z,0.00
2023-02-21T05:49:00.907Z,0.00
2023-02-21T05:50:00.926Z,0.00
2023-02-21T05:51:00.879Z,0.00
2023-02-21T05:52:00.870Z,0.00
2023-02-21T05:53:00.864Z,0.00
2023-02-21T05:54:00.840Z,0.00
2023-02-21T05:55:00.864Z,0.00
2023-02-21T05:56:00.824Z,0.00
2023-02-21T05:57:00.819Z,0.00
2023-02-21T05:58:00.792Z,0.00
2023-02-21T05:59:00.787Z,0.00
2023-02-21T06:00:00.804Z,0.00
2023-02-21T06:01:00.771Z,0.00
2023-02-21T06:02:00.773Z,0.00
2023-02-21T06:03:03.058Z,0.00
2023-02-21T06:04:00.738Z,0.00
2023-02-21T06:05:00.725Z,0.00
2023-02-21T06:06:00.718Z,0.00
2023-02-21T06:07:00.713Z,0.00
2023-02-21T06:08:00.695Z,0.00
2023-02-21T06:09:00.688Z,0.00
2023-02-21T06:10:00.678Z,0.00
2023-02-21T06:11:00.683Z,0.00
2023-02-21T06:12:00.656Z,0.00
2023-02-21T06:13:00.631Z,0.00
2023-02-21T06:14:00.624Z,0.00
2023-02-21T06:15:00.625Z,0.00
2023-02-21T06:16:00.637Z,0.00
2023-02-21T06:17:00.588Z,0.00
2023-02-21T06:18:00.576Z,0.00
2023-02-21T06:19:00.557Z,0.00
2023-02-21T06:20:00.559Z,0.00
2023-02-21T06:21:00.553Z,0.00
2023-02-21T06:22:00.527Z,0.00
2023-02-21T06:23:00.524Z,0.00
2023-02-21T06:24:00.512Z,0.00
2023-02-21T06:25:00.514Z,0.00
2023-02-21T06:26:00.492Z,0.00
2023-02-21T06:27:00.486Z,0.00
2023-02-21T06:28:00.477Z,5.62
2023-02-21T06:29:00.455Z,5.62
2023-02-21T06:30:00.472Z,5.62
2023-02-21T06:31:00.471Z,5.62
2023-02-21T06:32:00.447Z,5.62
2023-02-21T06:33:00.412Z,5.62
2023-02-21T06:34:00.404Z,5.62
2023-02-21T06:35:00.427Z,11.25
2023-02-21T06:36:00.415Z,11.25
2023-02-21T06:37:00.412Z,11.25
2023-02-21T06:38:00.487Z,11.25
2023-02-21T06:39:00.416Z,11.25
2023-02-21T06:40:00.396Z,16.88
2023-02-21T06:41:00.380Z,16.88
2023-02-21T06:42:00.400Z,16.88
2023-02-21T06:43:00.394Z,16.88
2023-02-21T06:44:00.381Z,22.50
2023-02-21T06:45:00.368Z,22.50
2023-02-21T06:46:00.378Z,22.50
2023-02-21T06:47:00.363Z,22.50
2023-02-21T06:48:00.250Z,22.50
2023-02-21T06:49:00.247Z,28.12
2023-02-21T06:50:00.239Z,28.12
2023-02-21T06:51:00.279Z,33.75
2023-02-21T06:52:00.209Z,33.75
2023-02-21T06:53:00.203Z,39.38
2023-02-21T06:54:00.242Z,39.38
2023-02-21T06:55:00.193Z,39.38
2023-02-21T06:56:00.160Z,45.00
2023-02-21T06:57:00.161Z,45.00
2023-02-21T06:58:00.149Z,45.00
2023-02-21T06:59:00.146Z,45.00
2023-02-21T07:00:00.156Z,45.00
2023-02-21T07:01:00.143Z,45.00
2023-02-21T07:02:00.162Z,45.00
2023-02-21T07:03:00.099Z,45.00
2023-02-21T07:04:00.085Z,45.00
2023-02-21T07:05:00.185Z,50.62
2023-02-21T07:06:00.081Z,50.62
2023-02-21T07:07:00.048Z,50.62
2023-02-21T07:08:00.043Z,50.62
2023-02-21T07:09:00.031Z,56.25
2023-02-21T07:10:00.023Z,56.25
2023-02-21T07:11:00.010Z,56.25
2023-02-21T07:11:59.989Z,56.25
2023-02-21T07:12:59.979Z,61.88
2023-02-21T07:13:59.962Z,61.88
2023-02-21T07:14:59.993Z,61.88
2023-02-21T07:15:59.969Z,61.88
2023-02-21T07:16:59.940Z,61.88
2023-02-21T07:17:59.928Z,61.88
2023-02-21T07:18:59.912Z,61.88
2023-02-21T07:19:59.921Z,61.88
2023-02-21T07:20:59.892Z,61.88
2023-02-21T07:22:04.755Z,67.50
2023-02-21T07:22:59.880Z,73.12
2023-02-21T07:23:59.857Z,73.12
2023-02-21T07:24:59.866Z,73.12
2023-02-21T07:25:59.828Z,78.75
2023-02-21T07:26:59.832Z,78.75
2023-02-21T07:27:59.809Z,84.38
2023-02-21T07:28:59.845Z,84.38
2023-02-21T07:29:59.797Z,84.38
2023-02-21T07:30:59.800Z,84.38
2023-02-21T07:31:59.899Z,84.38
2023-02-21T07:32:59.758Z,90.00
2023-02-21T07:33:59.737Z,90.00
2023-02-21T07:34:59.759Z,90.00
2023-02-21T07:35:59.712Z,95.62
2023-02-21T07:37:01.170Z,95.62
2023-02-21T07:37:59.732Z,95.62
2023-02-21T07:38:59.721Z,95.62
2023-02-21T07:39:59.682Z,95.62
2023-02-21T07:40:59.673Z,101.25
2023-02-21T07:41:59.658Z,101.25
2023-02-21T07:42:59.651Z,101.25
2023-02-21T07:43:59.677Z,101.25
2023-02-21T07:44:59.643Z,101.25
2023-02-21T07:45:59.704Z,101.25
2023-02-21T07:46:59.605Z,106.88
2023-02-21T07:47:59.631Z,112.50
2023-02-21T07:48:59.594Z,112.50
2023-02-21T07:49:59.591Z,118.12
2023-02-21T07:50:59.557Z,118.12
2023-02-21T07:51:59.549Z,123.75
2023-02-21T07:53:00.261Z,129.38
2023-02-21T07:53:59.535Z,135.00
2023-02-21T07:54:59.524Z,135.00
2023-02-21T07:55:59.510Z,135.00
2023-02-21T07:56:59.495Z,135.00
2023-02-21T07:57:59.506Z,135.00
2023-02-21T07:58:59.477Z,135.00
2023-02-21T07:59:59.483Z,135.00
2023-02-21T08:00:59.472Z,129.38
2023-02-21T08:01:59.459Z,129.38
2023-02-21T08:02:59.430Z,135.00
2023-02-21T08:03:59.406Z,140.62
2023-02-21T08:04:59.477Z,140.62
2023-02-21T08:05:59.425Z,140.62
2023-02-21T08:06:59.397Z,140.62
2023-02-21T08:07:59.374Z,140.62
2023-02-21T08:08:59.367Z,135.00
2023-02-21T08:09:59.348Z,135.00
2023-02-21T08:10:59.348Z,135.00
2023-02-21T08:11:59.328Z,135.00
2023-02-21T08:12:59.322Z,135.00
2023-02-21T08:13:59.314Z,140.62
2023-02-21T08:14:59.321Z,140.62
2023-02-21T08:15:59.320Z,140.62
2023-02-21T08:16:59.267Z,146.25
2023-02-21T08:17:59.266Z,146.25
2023-02-21T08:18:59.235Z,151.88
2023-02-21T08:19:59.238Z,157.50
2023-02-21T08:20:59.290Z,163.12
2023-02-21T08:21:59.220Z,168.75
2023-02-21T08:22:59.206Z,174.38
2023-02-21T08:23:59.218Z,174.38
2023-02-21T08:24:59.176Z,174.38
2023-02-21T08:25:59.195Z,168.75
2023-02-21T08:26:59.169Z,168.75
2023-02-21T08:27:59.155Z,168.75
2023-02-21T08:28:59.138Z,168.75
2023-02-21T08:29:59.129Z,174.38
2023-02-21T08:30:59.125Z,180.00
2023-02-21T08:31:59.126Z,180.00
2023-02-21T08:32:59.096Z,185.62
2023-02-21T08:33:59.087Z,185.62
2023-02-21T08:34:59.111Z,185.62
2023-02-21T08:35:59.097Z,191.25
2023-02-21T08:36:59.046Z,191.25
2023-02-21T08:37:59.050Z,196.88
2023-02-21T08:38:59.027Z,196.88
2023-02-21T08:39:59.025Z,196.88
2023-02-21T08:40:59.036Z,202.50
2023-02-21T08:41:59.019Z,213.75
2023-02-21T08:42:58.984Z,225.00
2023-02-21T08:43:58.978Z,230.62
2023-02-21T08:44:58.987Z,236.25
2023-02-21T08:45:58.957Z,241.88
2023-02-21T08:46:59.080Z,241.88
2023-02-21T08:47:58.941Z,247.50
2023-02-21T08:48:58.929Z,247.50
2023-02-21T08:49:58.919Z,258.75
2023-02-21T08:50:58.958Z,275.62
2023-02-21T08:51:58.896Z,309.38
2023-02-21T08:52:58.891Z,343.12
2023-02-21T08:53:58.878Z,376.88
2023-02-21T08:54:58.872Z,416.25
2023-02-21T08:55:58.867Z,450.00
2023-02-21T08:56:58.864Z,483.75
2023-02-21T08:57:58.824Z,534.38
2023-02-21T08:58:58.847Z,579.38
2023-02-21T08:59:58.812Z,590.62
2023-02-21T09:00:58.869Z,596.25
2023-02-21T09:01:58.819Z,596.25
2023-02-21T09:02:58.793Z,596.25
2023-02-21T09:03:58.765Z,601.88
2023-02-21T09:04:58.755Z,596.25
2023-02-21T09:05:58.855Z,573.75
2023-02-21T09:06:58.734Z,534.38
2023-02-21T09:07:58.740Z,545.62
2023-02-21T09:08:58.714Z,618.75
2023-02-21T09:10:01.063Z,686.25
2023-02-21T09:10:58.741Z,686.25
2023-02-21T09:11:58.673Z,652.50
2023-02-21T09:12:58.664Z,613.12
2023-02-21T09:13:58.647Z,601.88
2023-02-21T09:14:58.656Z,601.88
2023-02-21T09:15:58.637Z,607.50
2023-02-21T09:16:58.636Z,607.50
2023-02-21T09:17:58.604Z,601.88
2023-02-21T09:18:58.599Z,585.00
2023-02-21T09:19:58.593Z,551.25
2023-02-21T09:20:58.589Z,517.50
2023-02-21T09:22:00.209Z,500.62
2023-02-21T09:22:58.583Z,495.00
2023-02-21T09:23:58.549Z,500.62
2023-02-21T09:24:58.541Z,506.25
2023-02-21T09:25:58.544Z,506.25
2023-02-21T09:26:58.514Z,506.25
2023-02-21T09:27:58.508Z,500.62
2023-02-21T09:28:58.493Z,489.38
2023-02-21T09:29:58.492Z,472.50
2023-02-21T09:30:58.484Z,461.25
2023-02-21T09:31:58.484Z,444.38
2023-02-21T09:32:58.446Z,438.75
2023-02-21T09:33:58.433Z,438.75
2023-02-21T09:34:58.424Z,444.38
2023-02-21T09:35:58.424Z,450.00
2023-02-21T09:36:58.414Z,461.25
2023-02-21T09:37:58.393Z,461.25
2023-02-21T09:38:59.202Z,461.25
2023-02-21T09:39:58.376Z,472.50
2023-02-21T09:40:58.458Z,466.88
2023-02-21T09:41:58.438Z,466.88
2023-02-21T09:42:58.359Z,472.50
2023-02-21T09:43:58.327Z,489.38
2023-02-21T09:44:58.320Z,511.88
2023-02-21T09:45:58.374Z,528.75
2023-02-21T09:46:58.318Z,534.38
2023-02-21T09:47:58.307Z,534.38
2023-02-21T09:48:58.265Z,540.00
2023-02-21T09:49:58.252Z,534.38
2023-02-21T09:50:58.258Z,528.75
2023-02-21T09:51:58.242Z,528.75
2023-02-21T09:52:58.233Z,534.38
2023-02-21T09:53:58.220Z,545.62
2023-02-21T09:54:58.205Z,551.25
2023-02-21T09:55:58.213Z,573.75
2023-02-21T09:56:58.187Z,585.00
2023-02-21T09:57:58.167Z,596.25
2023-02-21T09:58:58.160Z,601.88
2023-02-21T09:59:58.147Z,601.88
2023-02-21T10:00:58.172Z,607.50
2023-02-21T10:01:58.122Z,613.12
2023-02-21T10:02:58.130Z,618.75
2023-02-21T10:03:58.090Z,630.00
2023-02-21T10:04:58.156Z,646.88
2023-02-21T10:05:58.075Z,686.25
2023-02-21T10:06:58.066Z,720.00
2023-02-21T10:07:59.139Z,731.25
2023-02-21T10:08:58.048Z,731.25
2023-02-21T10:09:58.041Z,736.88
2023-02-21T10:10:58.038Z,736.88
2023-02-21T10:11:58.010Z,725.62
2023-02-21T10:12:57.989Z,725.62
2023-02-21T10:13:57.990Z,742.50
2023-02-21T10:14:57.981Z,765.00
2023-02-21T10:15:57.981Z,798.75
2023-02-21T10:16:57.959Z,810.00
2023-02-21T10:17:57.942Z,810.00
2023-02-21T10:18:57.928Z,798.75
2023-02-21T10:19:57.920Z,770.62
2023-02-21T10:20:57.965Z,748.12
2023-02-21T10:21:57.891Z,736.88
2023-02-21T10:22:57.893Z,748.12
2023-02-21T10:23:57.926Z,776.25
2023-02-21T10:24:57.864Z,781.88
2023-02-21T10:25:57.864Z,793.12
2023-02-21T10:26:57.844Z,804.38
2023-02-21T10:27:57.833Z,793.12
2023-02-21T10:28:57.825Z,776.25
2023-02-21T10:29:57.816Z,770.62
2023-02-21T10:30:57.963Z,765.00
2023-02-21T10:31:57.864Z,753.75
2023-02-21T10:32:57.774Z,736.88
2023-02-21T10:33:57.766Z,708.75
2023-02-21T10:34:57.756Z,686.25
2023-02-21T10:35:57.743Z,686.25
2023-02-21T10:36:57.796Z,691.88
2023-02-21T10:37:57.722Z,720.00
2023-02-21T10:38:57.705Z,787.50
2023-02-21T10:39:57.684Z,810.00
2023-02-21T10:40:57.708Z,826.88
2023-02-21T10:41:57.679Z,860.62
2023-02-21T10:42:57.707Z,1023.75
2023-02-21T10:43:57.646Z,1068.75
2023-02-21T10:44:57.663Z,1417.50
2023-02-21T10:45:57.674Z,1653.75
2023-02-21T10:46:57.615Z,3065.62
2023-02-21T10:47:57.618Z,3301.88
2023-02-21T10:48:57.596Z,3414.38
2023-02-21T10:49:57.592Z,2970.00
2023-02-21T10:50:57.590Z,3346.88
2023-02-21T10:51:57.559Z,3442.50
2023-02-21T10:52:57.651Z,2947.50
2023-02-21T10:53:57.539Z,2705.62
2023-02-21T10:54:57.530Z,1271.25
2023-02-21T10:55:57.528Z,1175.62
2023-02-21T10:56:57.510Z,1175.62
2023-02-21T10:57:57.489Z,1181.25
2023-02-21T10:58:57.523Z,1164.38
2023-02-21T10:59:57.513Z,1141.88
2023-02-21T11:00:57.551Z,1074.38
2023-02-21T11:01:57.457Z,1018.12
2023-02-21T11:02:57.453Z,984.38
2023-02-21T11:03:57.443Z,961.88
2023-02-21T11:04:57.425Z,995.62
2023-02-21T11:05:57.426Z,1035.00
2023-02-21T11:06:57.394Z,1102.50
2023-02-21T11:07:57.415Z,1428.75
2023-02-21T11:08:57.397Z,1980.00
2023-02-21T11:09:57.370Z,1513.12
2023-02-21T11:10:57.383Z,2075.62
2023-02-21T11:11:57.350Z,2182.50
2023-02-21T11:12:57.336Z,1563.75
2023-02-21T11:13:57.317Z,1676.25
2023-02-21T11:14:57.308Z,1873.12
2023-02-21T11:15:57.348Z,1496.25
2023-02-21T11:16:57.281Z,1406.25
2023-02-21T11:17:57.280Z,1631.25
2023-02-21T11:18:57.268Z,1923.75
2023-02-21T11:19:57.275Z,1558.12
2023-02-21T11:20:57.272Z,1670.62
2023-02-21T11:21:57.250Z,2013.75
2023-02-21T11:22:57.227Z,2458.12
2023-02-21T11:23:57.210Z,2227.50
2023-02-21T11:24:57.194Z,3099.38
2023-02-21T11:25:57.211Z,2621.25
2023-02-21T11:26:57.174Z,3088.12
2023-02-21T11:27:57.192Z,3172.50
2023-02-21T11:28:57.155Z,2964.38
2023-02-21T11:29:57.152Z,3037.50
2023-02-21T11:30:57.179Z,3116.25
2023-02-21T11:31:57.155Z,3285.00
2023-02-21T11:32:57.289Z,3048.75
2023-02-21T11:33:57.117Z,2986.88
2023-02-21T11:34:57.096Z,2970.00
2023-02-21T11:35:57.100Z,2936.25
2023-02-21T11:36:57.088Z,3003.75
2023-02-21T11:37:57.093Z,2970.00
2023-02-21T11:38:57.059Z,3121.88
2023-02-21T11:39:57.093Z,3127.50
2023-02-21T11:40:57.102Z,2913.75
2023-02-21T11:41:57.072Z,2846.25
2023-02-21T11:42:57.062Z,2925.00
2023-02-21T11:43:57.020Z,3054.38
2023-02-21T11:44:57.020Z,3076.88
2023-02-21T11:45:57.026Z,3307.50
2023-02-21T11:46:56.994Z,3256.88
2023-02-21T11:47:57.046Z,3251.25
2023-02-21T11:48:56.969Z,3262.50
2023-02-21T11:49:56.947Z,3076.88
2023-02-21T11:50:56.969Z,3172.50
2023-02-21T11:51:56.920Z,3234.38
2023-02-21T11:52:56.958Z,3448.12
2023-02-21T11:53:56.920Z,3588.75
2023-02-21T11:54:56.947Z,3403.12
2023-02-21T11:55:56.910Z,3465.00
2023-02-21T11:56:56.849Z,3352.50
2023-02-21T11:57:56.842Z,3240.00
2023-02-21T11:58:56.851Z,3555.00
2023-02-21T11:59:56.866Z,3622.50
2023-02-21T12:00:56.861Z,3375.00
2023-02-21T12:01:56.826Z,3358.12
2023-02-21T12:02:56.821Z,3391.88
2023-02-21T12:03:56.811Z,3408.75
2023-02-21T12:04:56.769Z,3054.38
2023-02-21T12:05:57.115Z,2919.38
2023-02-21T12:06:56.753Z,3211.88
2023-02-21T12:07:56.826Z,3060.00
2023-02-21T12:08:56.758Z,3060.00
2023-02-21T12:09:56.767Z,3268.12
2023-02-21T12:10:56.803Z,3459.38
2023-02-21T12:11:56.747Z,3240.00
2023-02-21T12:12:56.725Z,3054.38
2023-02-21T12:13:56.695Z,3262.50
2023-02-21T12:14:56.706Z,3375.00
2023-02-21T12:15:56.738Z,3313.12
2023-02-21T12:16:56.662Z,3307.50
2023-02-21T12:17:56.690Z,3391.88
2023-02-21T12:18:56.641Z,3369.38
2023-02-21T12:19:56.638Z,3504.38
2023-02-21T12:20:56.608Z,3543.75
2023-02-21T12:21:56.592Z,3273.75
2023-02-21T12:22:56.569Z,3403.12
2023-02-21T12:23:56.578Z,3498.75
2023-02-21T12:24:56.555Z,3161.25
2023-02-21T12:25:56.540Z,3043.12
2023-02-21T12:26:56.542Z,2986.88
2023-02-21T12:27:56.538Z,2964.38
2023-02-21T12:28:56.524Z,2913.75
2023-02-21T12:29:56.506Z,2829.38
2023-02-21T12:30:56.610Z,2846.25
2023-02-21T12:31:56.622Z,3155.62
2023-02-21T12:32:56.490Z,3352.50
2023-02-21T12:33:56.460Z,3341.25
2023-02-21T12:34:56.495Z,3459.38
2023-02-21T12:35:56.524Z,3549.38
2023-02-21T12:36:56.477Z,3448.12
2023-02-21T12:37:56.440Z,3296.25
2023-02-21T12:38:56.456Z,3279.38
2023-02-21T12:39:56.454Z,3307.50
2023-02-21T12:40:56.407Z,3330.00
2023-02-21T12:41:56.384Z,3256.88
2023-02-21T12:42:56.389Z,3211.88
2023-02-21T12:43:56.375Z,3161.25
2023-02-21T12:44:56.369Z,3133.12
2023-02-21T12:45:56.348Z,3155.62
2023-02-21T12:46:56.329Z,3093.75
2023-02-21T12:47:56.321Z,3279.38
2023-02-21T12:48:56.319Z,3436.88
2023-02-21T12:49:56.317Z,3313.12
2023-02-21T12:50:56.310Z,3211.88